createdAt,value
2022-11-15T00:03:19.417Z,97122.53
2022-11-15T00:08:41.316Z,97123.56
2022-11-15T00:14:04.575Z,97112.44
2022-11-15T00:19:26.574Z,97113.22
2022-11-15T00:24:48.796Z,97115.06
2022-11-15T00:30:13.838Z,97114.38
2022-11-15T00:35:37.084Z,97115.41
2022-11-15T00:40:58.744Z,97116.56
2022-11-15T00:46:22.562Z,97118.28
2022-11-15T00:51:44.387Z,97119.56
2022-11-15T00:57:06.280Z,97114.25
2022-11-15T01:02:30.195Z,97115.38
2022-11-15T01:07:53.698Z,97107.84
2022-11-15T01:13:15.834Z,97106.25
2022-11-15T01:18:39.450Z,97107.84
2022-11-15T01:24:01.338Z,97103.59
2022-11-15T01:29:23.293Z,97104.81
2022-11-15T01:34:46.723Z,97101.97
2022-11-15T01:40:09.528Z,97091.00
2022-11-15T01:45:31.919Z,97080.53
2022-11-15T01:50:55.190Z,97077.66
2022-11-15T01:56:22.648Z,97061.97
2022-11-15T02:01:45.309Z,97055.00
2022-11-15T02:07:12.055Z,97042.34
2022-11-15T02:12:35.282Z,97047.47
2022-11-15T02:18:11.857Z,97036.91
2022-11-15T02:24:08.493Z,97048.09
2022-11-15T02:29:43.663Z,97037.28
2022-11-15T02:35:18.750Z,97037.19
2022-11-15T02:40:46.863Z,97037.34
2022-11-15T02:46:15.189Z,97026.03
2022-11-15T02:51:39.368Z,97039.53
2022-11-15T02:57:06.021Z,97028.47
2022-11-15T03:02:51.163Z,97032.84
2022-11-15T03:08:24.496Z,97026.22
2022-11-15T03:13:55.921Z,97021.28
2022-11-15T03:19:26.155Z,97010.41
2022-11-15T03:24:54.152Z,97002.59
2022-11-15T03:30:16.726Z,96998.56
2022-11-15T03:35:42.834Z,97009.44
2022-11-15T03:41:16.111Z,97005.97
2022-11-15T03:46:42.472Z,96999.38
2022-11-15T03:52:06.717Z,97009.13
2022-11-15T03:57:30.359Z,97003.97
2022-11-15T04:02:52.351Z,97005.19
2022-11-15T04:08:14.201Z,97014.59
2022-11-15T04:13:37.687Z,97005.22
2022-11-15T04:19:17.279Z,97004.06
2022-11-15T04:24:39.408Z,96996.03
2022-11-15T04:30:02.921Z,97000.31
2022-11-15T04:35:24.770Z,97002.91
2022-11-15T04:40:46.869Z,96995.84
2022-11-15T04:46:10.339Z,96993.53
2022-11-15T04:51:32.114Z,96996.06
2022-11-15T04:56:54.250Z,96999.03
2022-11-15T05:02:17.714Z,96994.75
2022-11-15T05:07:39.683Z,96996.69
2022-11-15T05:13:01.766Z,96992.09
2022-11-15T05:18:25.328Z,96982.94
2022-11-15T05:23:47.205Z,96984.44
2022-11-15T05:29:11.749Z,96975.41
2022-11-15T05:34:35.114Z,96983.06
2022-11-15T05:39:57.034Z,96975.88
2022-11-15T05:45:25.460Z,96971.88
2022-11-15T05:50:50.649Z,96970.28
2022-11-15T05:56:13.923Z,96973.44
2022-11-15T06:01:36.268Z,96978.09
2022-11-15T06:07:00.595Z,96979.81
2022-11-15T06:12:22.768Z,96991.81
2022-11-15T06:17:44.772Z,96993.72
2022-11-15T06:23:08.334Z,96998.41
2022-11-15T06:28:31.259Z,96991.44
2022-11-15T06:33:53.206Z,96991.09
2022-11-15T06:39:17.043Z,96997.41
2022-11-15T06:44:39.010Z,96997.63
2022-11-15T06:50:01.191Z,96999.97
2022-11-15T06:55:24.585Z,97005.09
2022-11-15T07:00:46.630Z,96998.88
2022-11-15T07:06:10.803Z,97001.16
2022-11-15T07:11:34.900Z,96992.75
2022-11-15T07:16:56.945Z,96998.41
2022-11-15T07:22:19.246Z,96997.53
2022-11-15T07:27:42.625Z,96994.41
2022-11-15T07:33:05.709Z,96987.94
2022-11-15T07:38:27.530Z,96997.25
2022-11-15T07:43:53.724Z,96989.22
2022-11-15T07:49:16.034Z,96986.06
2022-11-15T07:54:38.200Z,96982.94
2022-11-15T08:00:01.401Z,96975.88
2022-11-15T08:05:23.436Z,96971.63
2022-11-15T08:10:45.432Z,96964.19
2022-11-15T08:16:09.121Z,96950.53
2022-11-15T08:21:31.457Z,96949.28
2022-11-15T08:26:53.600Z,96944.59
2022-11-15T08:32:18.797Z,96932.88
2022-11-15T08:37:41.259Z,96936.38
2022-11-15T08:43:03.700Z,96930.19
2022-11-15T08:48:27.738Z,96916.59
2022-11-15T08:53:50.733Z,96919.06
2022-11-15T08:59:13.091Z,96925.81
2022-11-15T09:04:36.610Z,96927.03
2022-11-15T09:09:58.751Z,96923.88
2022-11-15T09:15:21.134Z,96904.75
2022-11-15T09:20:44.442Z,96910.38
2022-11-15T09:26:07.576Z,96912.88
2022-11-15T09:31:30.559Z,96905.69
2022-11-15T09:36:53.795Z,96906.34
2022-11-15T09:42:51.619Z,96902.22
2022-11-15T09:48:49.184Z,96903.41
2022-11-15T10:00:30.655Z,96884.44
2022-11-15T10:05:29.778Z,96877.06
2022-11-15T10:10:38.682Z,96886.81
2022-11-15T10:15:48.712Z,96883.97
2022-11-15T10:20:58.016Z,96874.41
2022-11-15T10:26:06.995Z,96874.41
2022-11-15T10:31:24.747Z,96860.44
2022-11-15T10:36:29.575Z,96858.13
2022-11-15T10:41:44.920Z,96853.97
2022-11-15T10:46:51.621Z,96847.47
2022-11-15T10:51:58.374Z,96837.53
2022-11-15T10:57:08.869Z,96836.16
2022-11-15T11:02:40.573Z,96831.00
2022-11-15T11:07:58.913Z,96825.19
2022-11-15T11:13:17.079Z,96815.78
2022-11-15T11:18:28.405Z,96820.34
2022-11-15T11:23:46.961Z,96813.03
2022-11-15T11:28:59.588Z,96814.84
2022-11-15T11:34:15.132Z,96800.31
2022-11-15T11:39:30.991Z,96798.94
2022-11-15T11:44:44.136Z,96802.50
2022-11-15T11:49:53.285Z,96785.75
2022-11-15T11:55:03.057Z,96787.06
2022-11-15T12:00:19.984Z,96776.88
2022-11-15T12:05:31.071Z,96771.31
2022-11-15T12:10:37.142Z,96768.56
2022-11-15T12:15:47.937Z,96766.81
2022-11-15T12:20:57.332Z,96759.09
2022-11-15T12:26:06.235Z,96753.41
2022-11-15T12:31:19.817Z,96751.03
2022-11-15T12:36:38.956Z,96735.94
2022-11-15T12:41:44.663Z,96739.50
2022-11-15T12:47:25.723Z,96731.88
2022-11-15T12:52:30.068Z,96724.31
2022-11-15T12:57:42.184Z,96721.59
2022-11-15T13:02:49.461Z,96710.19
2022-11-15T13:08:00.654Z,96708.78
2022-11-15T13:13:06.208Z,96713.41
2022-11-15T13:18:40.501Z,96702.19
2022-11-15T13:23:44.268Z,96707.53
2022-11-15T13:28:50.600Z,96710.25
2022-11-15T13:33:59.235Z,96705.78
2022-11-15T13:39:05.671Z,96710.00
2022-11-15T13:44:22.339Z,96694.53
2022-11-15T13:49:33.748Z,96686.41
2022-11-15T13:54:44.084Z,96682.44
2022-11-15T13:59:50.858Z,96684.44
2022-11-15T14:04:58.109Z,96682.16
2022-11-15T14:10:26.453Z,96677.31
2022-11-15T14:15:33.862Z,96677.66
2022-11-15T14:20:41.394Z,96680.16
2022-11-15T14:25:54.763Z,96680.91
2022-11-15T14:31:00.135Z,96680.72
2022-11-15T14:36:07.861Z,96678.84
2022-11-15T14:41:22.764Z,96676.59
2022-11-15T14:46:26.234Z,96674.13
2022-11-15T14:51:31.156Z,96661.31
2022-11-15T14:56:34.723Z,96664.69
2022-11-15T15:01:38.693Z,96663.53
2022-11-15T15:06:43.772Z,96653.91
2022-11-15T15:11:47.332Z,96648.25
2022-11-15T15:16:50.941Z,96633.56
2022-11-15T15:21:56.074Z,96624.28
2022-11-15T15:26:59.730Z,96620.72
2022-11-15T15:32:03.525Z,96625.94
2022-11-15T15:37:24.940Z,96630.94
2022-11-15T15:42:28.599Z,96624.00
2022-11-15T15:47:32.173Z,96615.50
2022-11-15T15:52:37.362Z,96608.19
2022-11-15T15:57:41.024Z,96609.00
2022-11-15T16:02:44.812Z,96605.81
2022-11-15T16:07:50.112Z,96592.16
2022-11-15T16:12:54.602Z,96595.25
2022-11-15T16:17:59.863Z,96600.75
2022-11-15T16:23:09.376Z,96600.66
2022-11-15T16:28:19.678Z,96592.00
2022-11-15T16:33:23.370Z,96587.47
2022-11-15T16:38:29.451Z,96601.44
2022-11-15T16:43:33.450Z,96592.56
2022-11-15T16:48:37.264Z,96594.56
2022-11-15T16:53:42.917Z,96590.56
2022-11-15T16:58:46.482Z,96583.13
2022-11-15T17:03:50.252Z,96574.81
2022-11-15T17:08:56.724Z,96566.66
2022-11-15T17:14:00.956Z,96563.47
2022-11-15T17:19:04.951Z,96560.63
2022-11-15T17:24:11.705Z,96552.94
2022-11-15T17:29:15.638Z,96554.66
2022-11-15T17:34:19.360Z,96553.22
2022-11-15T17:39:25.001Z,96558.97
2022-11-15T17:44:28.709Z,96547.53
2022-11-15T17:49:32.479Z,96550.81
2022-11-15T17:54:37.554Z,96540.94
2022-11-15T17:59:41.317Z,96537.06
2022-11-15T18:04:44.977Z,96529.03
2022-11-15T18:09:50.026Z,96515.63
2022-11-15T18:14:53.675Z,96516.22
2022-11-15T18:19:57.298Z,96517.66
2022-11-15T18:25:02.708Z,96518.44
2022-11-15T18:30:07.181Z,96504.75
2022-11-15T18:35:11.009Z,96498.53
2022-11-15T18:40:16.562Z,96506.00
2022-11-15T18:45:24.133Z,96490.19
2022-11-15T18:50:28.114Z,96484.41
2022-11-15T18:55:32.991Z,96479.13
2022-11-15T19:00:36.619Z,96471.06
2022-11-15T19:05:40.152Z,96468.84
2022-11-15T19:10:45.152Z,96463.41
2022-11-15T19:15:49.343Z,96469.88
2022-11-15T19:20:52.953Z,96463.38
2022-11-15T19:25:59.592Z,96464.38
2022-11-15T19:31:07.872Z,96453.13
2022-11-15T19:36:13.865Z,96449.25
2022-11-15T19:41:20.550Z,96440.88
2022-11-15T19:46:26.888Z,96433.22
2022-11-15T19:51:31.397Z,96434.53
2022-11-15T19:56:36.630Z,96436.16
2022-11-15T20:01:40.496Z,96430.19
2022-11-15T20:06:44.611Z,96419.91
2022-11-15T20:11:49.463Z,96423.38
2022-11-15T20:16:54.583Z,96423.69
2022-11-15T20:21:58.324Z,96420.28
2022-11-15T20:27:03.245Z,96425.69
2022-11-15T20:32:06.901Z,96413.38
2022-11-15T20:37:10.537Z,96420.19
2022-11-15T20:42:15.772Z,96403.13
2022-11-15T20:47:19.315Z,96401.94
2022-11-15T20:52:22.938Z,96406.44
2022-11-15T20:57:28.233Z,96398.22
2022-11-15T21:02:32.310Z,96390.69
2022-11-15T21:07:36.181Z,96389.97
2022-11-15T21:12:41.261Z,96377.41
2022-11-15T21:17:44.711Z,96370.50
2022-11-15T21:22:49.640Z,96358.84
2022-11-15T21:27:55.192Z,96360.50
2022-11-15T21:33:00.103Z,96355.56
2022-11-15T21:38:03.755Z,96353.78
2022-11-15T21:43:09.014Z,96340.13
2022-11-15T21:48:12.634Z,96336.28
2022-11-15T21:53:16.162Z,96329.50
2022-11-15T21:58:21.750Z,96333.88
2022-11-15T22:03:25.362Z,96332.81
2022-11-15T22:08:29.398Z,96330.63
2022-11-15T22:13:34.374Z,96323.09
2022-11-15T22:18:38.873Z,96307.59
2022-11-15T22:23:43.469Z,96296.09
2022-11-15T22:28:48.646Z,96299.84
2022-11-15T22:33:52.262Z,96292.97
2022-11-15T22:38:56.331Z,96288.28
2022-11-15T22:44:01.841Z,96289.56
2022-11-15T22:49:06.780Z,96289.25
2022-11-15T22:54:10.472Z,96269.22
2022-11-15T22:59:15.470Z,96253.72
2022-11-15T23:04:19.277Z,96252.84
2022-11-15T23:09:22.946Z,96248.97
2022-11-15T23:14:28.258Z,96239.69
2022-11-15T23:19:31.821Z,96237.56
2022-11-15T23:24:35.785Z,96234.41
2022-11-15T23:29:54.629Z,96226.59
2022-11-15T23:34:58.209Z,96223.03
2022-11-15T23:40:01.944Z,96220.16
2022-11-15T23:45:08.223Z,96211.63
2022-11-15T23:50:12.551Z,96195.66
2022-11-15T23:55:16.299Z,96189.97
